Brookhaven Weather

Current Time: 14:08 Zulu

HWV METARs

Local Time Temperature Dew Point Wind Direction Wind Speed Wind Gust Sky Vis.
8/13/2020 1:56:00 PM 27.8° c 22.8° c 160° 7 kt - BKN 1500 ft AGL 9.0 sm
8/13/2020 1:51:00 PM 28.0° c 23.0° c 150° 6 kt - BKN 1500 ft AGL 9.0 sm
8/13/2020 1:19:00 PM 27.8° c 22.8° c variable 0 kt - BKN 1400 ft AGL 8.0 sm
8/13/2020 12:56:00 PM 27.2° c 22.8° c variable 3 kt - SCT 900 ft AGL 8.0 sm
8/13/2020 12:46:00 PM 27.2° c 23.3° c variable 4 kt - SCT 900 ft AGL 8.0 sm
8/13/2020 12:25:00 PM 26.7° c 22.8° c variable 0 kt - BKN 800 ft AGL 8.0 sm
8/13/2020 12:09:00 PM 26.7° c 22.8° c variable 0 kt - FEW 800 ft AGL 9.0 sm
8/13/2020 11:56:00 AM 25.6° c 22.8° c variable 0 kt - CLR 7.0 sm
8/13/2020 11:46:00 AM 25.0° c 22.8° c variable 0 kt - SCT 1100 ft AGL 7.0 sm
8/13/2020 10:56:00 AM 24.4° c 22.8° c variable 0 kt - OVC 1200 ft AGL 5.0 sm
8/13/2020 10:19:00 AM 23.9° c 22.2° c variable 0 kt - BKN 1200 ft AGL 4.0 sm

ISP TAF:

KISP 131139Z 1312/1412 VRB03KT P6SM BKN015 TEMPO 1312/1313 OVC009 
FM131400 06005KT P6SM VCSH SCT045 BKN120 
FM131700 18006KT P6SM VCSH SCT050 BKN100 TEMPO 1317/1321 5SM TSRA BKN050CB 
FM132100 21006KT P6SM VCSH SCT070 BKN100 
FM132200 19004KT P6SM SCT070 BKN150 
FM140300 00000KT P6SM SCT070 BKN150
Weather data provided by aviationweather.gov. Pilots must verify weather before flying.